createdAt,value
2019-03-21T00:02:19.278Z,9.50
2019-03-21T00:05:09.501Z,9.40
2019-03-21T00:07:59.299Z,9.40
2019-03-21T00:11:31.194Z,9.40
2019-03-21T00:14:46.338Z,9.40
2019-03-21T00:17:41.981Z,9.30
2019-03-21T00:20:31.524Z,9.30
2019-03-21T00:23:20.793Z,9.30
2019-03-21T00:26:10.432Z,9.30
2019-03-21T00:29:00.050Z,9.30
2019-03-21T00:31:49.675Z,9.30
2019-03-21T00:34:39.067Z,9.30
2019-03-21T00:37:28.655Z,9.30
2019-03-21T00:40:24.171Z,9.30
2019-03-21T00:43:14.049Z,9.30
2019-03-21T00:46:03.395Z,9.30
2019-03-21T00:48:52.938Z,9.30
2019-03-21T00:51:42.101Z,9.20
2019-03-21T00:54:31.886Z,9.10
2019-03-21T00:57:21.154Z,9.10
2019-03-21T01:00:14.778Z,9.10
2019-03-21T01:03:04.590Z,9.10
2019-03-21T01:05:54.152Z,9.10
2019-03-21T01:08:43.878Z,9.10
2019-03-21T01:11:33.126Z,9.00
2019-03-21T01:14:29.793Z,9.00
2019-03-21T01:17:13.933Z,9.00
2019-03-21T01:20:03.545Z,9.00
2019-03-21T01:22:53.158Z,9.00
2019-03-21T01:25:48.473Z,8.90
2019-03-21T01:28:37.467Z,8.90
2019-03-21T01:31:27.512Z,8.90
2019-03-21T01:34:16.622Z,8.90
2019-03-21T01:37:05.849Z,8.80
2019-03-21T01:39:55.142Z,8.80
2019-03-21T01:42:44.636Z,8.30
2019-03-21T01:45:33.855Z,8.80
2019-03-21T01:48:23.845Z,8.80
2019-03-21T01:51:13.096Z,8.80
2019-03-21T01:54:02.162Z,8.70
2019-03-21T01:56:51.742Z,8.70
2019-03-21T01:59:41.107Z,8.70
2019-03-21T02:02:30.816Z,8.60
2019-03-21T02:05:19.875Z,8.50
2019-03-21T02:08:09.634Z,8.50
2019-03-21T02:10:59.361Z,8.50
2019-03-21T02:13:48.700Z,8.40
2019-03-21T02:16:38.377Z,8.40
2019-03-21T02:19:28.171Z,8.40
2019-03-21T02:22:17.689Z,8.50
2019-03-21T02:25:09.955Z,8.40
2019-03-21T02:27:59.443Z,8.40
2019-03-21T02:30:49.355Z,8.40
2019-03-21T02:33:38.942Z,8.40
2019-03-21T02:36:28.215Z,8.40
2019-03-21T02:39:17.464Z,8.30
2019-03-21T02:42:06.433Z,8.30
2019-03-21T02:45:07.663Z,8.30
2019-03-21T02:47:47.120Z,8.30
2019-03-21T02:50:36.420Z,8.30
2019-03-21T02:53:25.541Z,8.30
2019-03-21T02:56:16.469Z,8.20
2019-03-21T02:59:05.854Z,8.20
2019-03-21T03:01:55.091Z,8.20
2019-03-21T03:04:44.324Z,8.20
2019-03-21T03:07:33.908Z,8.20
2019-03-21T03:10:27.146Z,8.20
2019-03-21T03:13:16.972Z,8.20
2019-03-21T03:16:06.514Z,8.20
2019-03-21T03:18:55.649Z,8.20
2019-03-21T03:21:45.293Z,8.20
2019-03-21T03:24:35.916Z,8.10
2019-03-21T03:27:25.534Z,8.10
2019-03-21T03:30:17.858Z,8.10
2019-03-21T03:33:01.851Z,8.10
2019-03-21T03:35:51.490Z,8.10
2019-03-21T03:38:40.850Z,8.10
2019-03-21T03:41:30.753Z,8.10
2019-03-21T03:44:20.282Z,8.10
2019-03-21T03:47:09.982Z,8.10
2019-03-21T03:49:59.919Z,8.10
2019-03-21T03:52:50.641Z,8.10
2019-03-21T03:55:39.561Z,8.10
2019-03-21T03:58:28.801Z,8.10
2019-03-21T04:01:18.070Z,8.10
2019-03-21T04:04:07.856Z,8.00
2019-03-21T04:06:57.091Z,8.00
2019-03-21T04:09:46.734Z,8.00
2019-03-21T04:12:36.815Z,7.90
2019-03-21T04:15:25.887Z,7.90
2019-03-21T04:18:14.960Z,7.90
2019-03-21T04:21:05.029Z,7.90
2019-03-21T04:23:54.823Z,7.90
2019-03-21T04:26:44.880Z,7.90
2019-03-21T04:29:34.897Z,7.90
2019-03-21T04:32:25.359Z,7.90
2019-03-21T04:35:15.071Z,7.90
2019-03-21T04:38:05.299Z,7.90
2019-03-21T04:40:55.154Z,7.80
2019-03-21T04:43:44.710Z,7.70
2019-03-21T04:46:34.080Z,7.70
2019-03-21T04:49:05.356Z,7.70
2019-03-21T04:51:54.349Z,7.70
2019-03-21T04:54:44.269Z,7.70
2019-03-21T04:57:33.764Z,7.70
2019-03-21T05:00:25.941Z,7.70
2019-03-21T05:02:58.519Z,7.70
2019-03-21T05:05:47.891Z,7.70
2019-03-21T05:08:37.617Z,7.60
2019-03-21T05:11:27.263Z,7.70
2019-03-21T05:14:16.374Z,7.70
2019-03-21T05:17:06.812Z,7.60
2019-03-21T05:19:56.268Z,7.60
2019-03-21T05:22:46.323Z,7.70
2019-03-21T05:25:35.719Z,7.60
2019-03-21T05:28:25.638Z,7.60
2019-03-21T05:31:18.941Z,7.60
2019-03-21T05:34:08.306Z,7.70
2019-03-21T05:36:58.311Z,7.70
2019-03-21T05:39:48.357Z,7.60
2019-03-21T05:42:37.933Z,7.60
2019-03-21T05:45:27.296Z,7.60
2019-03-21T05:48:17.434Z,7.60
2019-03-21T05:51:07.480Z,7.60
2019-03-21T05:53:57.594Z,7.60
2019-03-21T05:56:47.217Z,7.60
2019-03-21T05:59:36.750Z,7.60
2019-03-21T06:02:26.785Z,7.60
2019-03-21T06:05:16.235Z,7.50
2019-03-21T06:08:15.337Z,7.60
2019-03-21T06:11:05.361Z,7.60
2019-03-21T06:13:55.316Z,7.60
2019-03-21T06:16:45.270Z,7.60
2019-03-21T06:19:53.010Z,7.60
2019-03-21T06:23:33.729Z,7.60
2019-03-21T06:26:50.480Z,7.60
2019-03-21T06:29:40.225Z,7.60
2019-03-21T06:32:30.026Z,7.70
2019-03-21T06:35:22.954Z,7.70
2019-03-21T06:38:12.649Z,7.80
2019-03-21T06:41:02.077Z,7.80
2019-03-21T06:43:51.337Z,7.80
2019-03-21T06:46:48.845Z,7.80
2019-03-21T06:49:31.698Z,7.70
2019-03-21T06:52:20.853Z,7.80
2019-03-21T06:55:10.160Z,7.80
2019-03-21T06:57:59.953Z,7.90
2019-03-21T07:00:49.173Z,7.90
2019-03-21T07:03:38.611Z,7.90
2019-03-21T07:06:27.769Z,8.00
2019-03-21T07:09:17.658Z,8.10
2019-03-21T07:12:07.998Z,8.10
2019-03-21T07:14:59.161Z,8.10
2019-03-21T07:18:08.789Z,8.20
2019-03-21T07:21:00.920Z,8.20
2019-03-21T07:23:49.026Z,8.20
2019-03-21T07:26:39.193Z,8.30
2019-03-21T07:29:29.281Z,8.30
2019-03-21T07:32:18.998Z,8.40
2019-03-21T07:35:09.358Z,8.40
2019-03-21T07:37:59.430Z,8.50
2019-03-21T07:40:48.866Z,8.50
2019-03-21T07:43:38.439Z,8.50
2019-03-21T07:46:28.338Z,8.60
2019-03-21T07:49:18.456Z,8.60
2019-03-21T07:52:08.129Z,8.70
2019-03-21T07:54:57.626Z,8.70
2019-03-21T07:57:47.603Z,8.80
2019-03-21T08:00:36.939Z,8.90
2019-03-21T08:03:26.832Z,8.90
2019-03-21T08:06:16.479Z,8.90
2019-03-21T08:09:08.548Z,9.00
2019-03-21T08:11:57.751Z,9.00
2019-03-21T08:14:47.358Z,9.10
2019-03-21T08:17:36.934Z,9.20
2019-03-21T08:20:26.498Z,9.20
2019-03-21T08:23:16.658Z,9.20
2019-03-21T08:26:06.062Z,9.20
2019-03-21T08:28:55.506Z,9.20
2019-03-21T08:31:45.305Z,9.20
2019-03-21T08:34:35.346Z,9.20
2019-03-21T08:37:24.793Z,9.20
2019-03-21T08:40:15.215Z,9.10
2019-03-21T08:43:04.443Z,8.70
2019-03-21T08:45:53.932Z,9.20
2019-03-21T08:48:43.872Z,9.20
2019-03-21T08:51:33.610Z,9.20
2019-03-21T08:54:23.739Z,9.30
2019-03-21T08:57:13.527Z,9.40
2019-03-21T09:00:02.575Z,9.50
2019-03-21T09:02:52.686Z,9.50
2019-03-21T09:05:42.063Z,9.50
2019-03-21T09:08:31.666Z,9.50
2019-03-21T09:11:21.550Z,9.60
2019-03-21T09:14:12.000Z,9.70
2019-03-21T09:17:02.054Z,9.70
2019-03-21T09:19:51.465Z,9.80
2019-03-21T09:22:40.968Z,9.90
2019-03-21T09:25:29.841Z,10.00
2019-03-21T09:28:19.453Z,10.00
2019-03-21T09:31:08.663Z,10.10
2019-03-21T09:33:58.966Z,10.20
2019-03-21T09:36:48.031Z,10.30
2019-03-21T09:39:37.399Z,10.40
2019-03-21T09:42:27.096Z,10.50
2019-03-21T09:45:17.470Z,10.60
2019-03-21T09:48:07.043Z,10.80
2019-03-21T09:50:56.903Z,10.90
2019-03-21T09:53:46.499Z,11.00
2019-03-21T09:56:36.366Z,11.00
2019-03-21T09:59:25.700Z,11.10
2019-03-21T10:02:14.937Z,11.20
2019-03-21T10:05:05.210Z,11.20
2019-03-21T10:07:54.779Z,11.30
2019-03-21T10:10:44.507Z,11.50
2019-03-21T10:13:34.240Z,11.60
2019-03-21T10:16:24.286Z,11.70
2019-03-21T10:19:13.964Z,11.70
2019-03-21T10:22:03.492Z,11.80
2019-03-21T10:24:52.936Z,11.90
2019-03-21T10:27:42.361Z,12.00
2019-03-21T10:30:39.452Z,12.10
2019-03-21T10:33:28.898Z,12.20
2019-03-21T10:36:18.445Z,12.30
2019-03-21T10:39:08.490Z,12.40
2019-03-21T10:41:57.825Z,12.50
2019-03-21T10:44:47.535Z,12.60
2019-03-21T10:47:37.069Z,12.70
2019-03-21T10:50:32.306Z,12.80
2019-03-21T10:53:22.515Z,12.90
2019-03-21T10:56:12.354Z,13.00
2019-03-21T10:59:01.558Z,13.00
2019-03-21T11:01:51.285Z,13.10
2019-03-21T11:04:40.899Z,13.20
2019-03-21T11:07:30.962Z,13.30
2019-03-21T11:10:21.272Z,13.40
2019-03-21T11:13:10.461Z,13.50
2019-03-21T11:15:59.537Z,13.60
2019-03-21T11:18:48.960Z,13.70
2019-03-21T11:21:38.761Z,13.70
2019-03-21T11:24:28.493Z,13.80
2019-03-21T11:27:17.728Z,13.90
2019-03-21T11:30:15.713Z,14.00
2019-03-21T11:32:58.934Z,14.00
2019-03-21T11:35:48.781Z,14.10
2019-03-21T11:38:38.878Z,14.10
2019-03-21T11:41:28.000Z,14.10
2019-03-21T11:47:05.961Z,14.20
2019-03-21T11:49:55.105Z,14.30
2019-03-21T11:52:45.194Z,14.30
2019-03-21T11:55:34.688Z,14.50
2019-03-21T11:58:24.723Z,14.40
2019-03-21T12:01:14.094Z,14.50
2019-03-21T12:04:03.219Z,14.50
2019-03-21T12:06:52.325Z,14.50
2019-03-21T12:09:42.416Z,14.60
2019-03-21T12:12:32.008Z,14.80
2019-03-21T12:15:21.740Z,14.90
2019-03-21T12:18:11.306Z,14.90
2019-03-21T12:21:01.351Z,15.00
2019-03-21T12:23:51.273Z,15.00
2019-03-21T12:26:41.231Z,15.10
2019-03-21T12:29:30.918Z,15.10
2019-03-21T12:32:20.500Z,15.20
2019-03-21T12:35:10.437Z,15.20
2019-03-21T12:38:00.092Z,15.30
2019-03-21T12:40:49.589Z,15.30
2019-03-21T12:43:40.777Z,15.30
2019-03-21T12:46:30.602Z,15.40
2019-03-21T12:49:20.583Z,15.50
2019-03-21T12:52:10.019Z,15.60
2019-03-21T12:55:00.358Z,15.70
2019-03-21T12:57:49.574Z,15.70
2019-03-21T13:00:43.845Z,15.80
2019-03-21T13:03:33.220Z,15.90
2019-03-21T13:06:22.620Z,15.90
2019-03-21T13:09:12.100Z,15.90
2019-03-21T13:12:01.646Z,16.00
2019-03-21T13:14:51.153Z,16.10
2019-03-21T13:17:41.244Z,16.10
2019-03-21T13:20:30.818Z,16.10
2019-03-21T13:23:20.174Z,16.10
2019-03-21T13:26:10.279Z,16.20
2019-03-21T13:29:00.071Z,16.10
2019-03-21T13:31:49.389Z,16.20
2019-03-21T13:34:38.576Z,16.30
2019-03-21T13:37:28.484Z,16.30
2019-03-21T13:40:18.441Z,16.30
2019-03-21T13:43:07.484Z,16.30
2019-03-21T13:45:56.734Z,16.40
2019-03-21T13:48:46.502Z,16.50
2019-03-21T13:51:36.052Z,16.50
2019-03-21T13:54:25.850Z,16.60
2019-03-21T13:57:15.618Z,16.60
2019-03-21T14:00:07.329Z,16.60
2019-03-21T14:02:57.052Z,16.70
2019-03-21T14:05:46.554Z,16.70
2019-03-21T14:08:35.985Z,16.70
2019-03-21T14:11:25.660Z,16.70
2019-03-21T14:14:15.273Z,16.80
2019-03-21T14:17:04.939Z,16.80
2019-03-21T14:19:54.649Z,16.80
2019-03-21T14:22:44.199Z,16.80
2019-03-21T14:25:34.207Z,16.80
2019-03-21T14:28:23.664Z,16.90
2019-03-21T14:31:12.689Z,16.90
2019-03-21T14:34:01.730Z,16.90
2019-03-21T14:36:51.756Z,16.90
2019-03-21T14:39:41.020Z,17.00
2019-03-21T14:42:32.711Z,17.00
2019-03-21T14:45:22.087Z,17.00
2019-03-21T14:48:11.009Z,17.10
2019-03-21T14:51:00.559Z,17.10
2019-03-21T14:53:50.162Z,17.20
2019-03-21T14:56:39.641Z,17.20
2019-03-21T14:59:28.887Z,17.10
2019-03-21T15:02:18.052Z,17.10
2019-03-21T15:05:09.212Z,17.10
2019-03-21T15:07:58.901Z,17.10
2019-03-21T15:10:48.250Z,17.20
2019-03-21T15:13:38.356Z,17.20
2019-03-21T15:16:27.566Z,17.20
2019-03-21T15:19:17.434Z,17.20
2019-03-21T15:22:07.386Z,17.20
2019-03-21T15:24:56.038Z,17.30
2019-03-21T15:27:45.894Z,17.40
2019-03-21T15:30:35.681Z,17.40
2019-03-21T15:33:25.392Z,17.50
2019-03-21T15:36:14.921Z,17.50
2019-03-21T15:39:07.302Z,17.50
2019-03-21T15:41:56.277Z,17.50
2019-03-21T15:44:46.455Z,17.50
2019-03-21T15:47:35.659Z,17.50
2019-03-21T15:50:38.469Z,17.50
2019-03-21T15:53:28.488Z,17.50
2019-03-21T15:56:18.231Z,17.50
2019-03-21T15:59:07.736Z,17.40
2019-03-21T16:01:57.684Z,17.60
2019-03-21T16:04:46.891Z,17.50
2019-03-21T16:07:30.375Z,17.50
2019-03-21T16:10:19.967Z,17.50
2019-03-21T16:13:09.590Z,17.40
2019-03-21T16:15:59.692Z,17.30
2019-03-21T16:18:48.764Z,17.30
2019-03-21T16:21:38.484Z,17.30
2019-03-21T16:24:28.382Z,17.20
2019-03-21T16:27:18.041Z,17.20
2019-03-21T16:30:08.587Z,17.10
2019-03-21T16:32:58.459Z,17.10
2019-03-21T16:35:48.489Z,17.10
2019-03-21T16:38:38.190Z,17.00
2019-03-21T16:41:29.712Z,17.00
2019-03-21T16:44:18.849Z,17.00
2019-03-21T16:47:08.041Z,16.90
2019-03-21T16:49:57.723Z,16.90
2019-03-21T16:52:47.193Z,16.90
2019-03-21T16:55:36.898Z,16.90
2019-03-21T16:58:27.091Z,16.80
2019-03-21T17:01:16.735Z,16.80
2019-03-21T17:04:06.108Z,16.70
2019-03-21T17:06:52.035Z,16.60
2019-03-21T17:09:41.569Z,16.50
2019-03-21T17:12:30.910Z,16.50
2019-03-21T17:15:20.518Z,16.40
2019-03-21T17:18:09.659Z,16.30
2019-03-21T17:20:59.468Z,16.20
2019-03-21T17:23:49.039Z,16.10
2019-03-21T17:26:39.031Z,16.00
2019-03-21T17:29:29.078Z,15.90
2019-03-21T17:32:18.886Z,15.70
2019-03-21T17:35:08.160Z,15.70
2019-03-21T17:37:57.769Z,15.60
2019-03-21T17:40:47.584Z,15.60
2019-03-21T17:43:36.868Z,15.40
2019-03-21T17:46:26.281Z,15.30
2019-03-21T17:49:15.863Z,15.20
2019-03-21T17:52:05.646Z,15.10
2019-03-21T17:54:54.531Z,15.10
2019-03-21T17:57:44.401Z,15.00
2019-03-21T18:00:34.441Z,14.90
2019-03-21T18:03:24.122Z,14.80
2019-03-21T18:06:13.444Z,14.80
2019-03-21T18:09:02.548Z,14.80
2019-03-21T18:11:51.802Z,14.80
2019-03-21T18:14:22.350Z,14.70
2019-03-21T18:17:11.684Z,14.70
2019-03-21T18:20:01.098Z,14.60
2019-03-21T18:22:54.390Z,14.50
2019-03-21T18:25:44.542Z,14.50
2019-03-21T18:28:34.484Z,14.50
2019-03-21T18:31:24.232Z,14.40
2019-03-21T18:34:14.208Z,14.40
2019-03-21T18:37:03.553Z,14.40
2019-03-21T18:39:54.254Z,14.30
2019-03-21T18:42:44.484Z,14.30
2019-03-21T18:45:34.145Z,14.20
2019-03-21T18:48:23.972Z,14.20
2019-03-21T18:50:55.031Z,14.10
2019-03-21T18:53:25.796Z,14.10
2019-03-21T18:55:56.548Z,14.00
2019-03-21T18:58:27.222Z,14.00
2019-03-21T19:00:58.268Z,14.00
2019-03-21T19:03:28.949Z,14.00
2019-03-21T19:05:59.616Z,13.90
2019-03-21T19:08:30.154Z,13.90
2019-03-21T19:11:00.681Z,13.80
2019-03-21T19:13:31.301Z,13.80
2019-03-21T19:16:02.540Z,13.80
2019-03-21T19:18:33.156Z,13.80
2019-03-21T19:21:05.683Z,13.70
2019-03-21T19:23:36.771Z,13.70
2019-03-21T19:26:07.468Z,13.70
2019-03-21T19:28:38.390Z,13.60
2019-03-21T19:31:09.331Z,13.60
2019-03-21T19:33:39.921Z,13.60
2019-03-21T19:36:10.873Z,13.50
2019-03-21T19:38:41.712Z,13.50
2019-03-21T19:41:12.546Z,13.40
2019-03-21T19:43:43.219Z,13.40
2019-03-21T19:46:14.053Z,13.30
2019-03-21T19:48:50.128Z,13.30
2019-03-21T19:51:17.336Z,13.30
2019-03-21T19:53:48.475Z,13.20
2019-03-21T19:56:19.233Z,13.20
2019-03-21T19:58:50.246Z,13.20
2019-03-21T20:01:21.306Z,13.10
2019-03-21T20:03:52.069Z,13.10
2019-03-21T20:06:25.797Z,13.00
2019-03-21T20:08:57.062Z,13.00
2019-03-21T20:11:28.133Z,13.00
2019-03-21T20:14:03.938Z,12.90
2019-03-21T20:16:34.547Z,12.90
2019-03-21T20:19:05.764Z,12.90
2019-03-21T20:21:47.285Z,12.80
2019-03-21T20:24:08.962Z,12.80
2019-03-21T20:26:39.912Z,12.80
2019-03-21T20:29:10.874Z,12.70
2019-03-21T20:31:41.923Z,12.70
2019-03-21T20:34:13.552Z,12.60
2019-03-21T20:36:46.679Z,12.60
2019-03-21T20:39:17.566Z,12.60
2019-03-21T20:41:48.338Z,12.50
2019-03-21T20:44:19.189Z,12.50
2019-03-21T20:46:50.228Z,12.50
2019-03-21T20:49:39.861Z,12.50
2019-03-21T20:52:29.673Z,12.40
2019-03-21T20:55:19.490Z,12.40
2019-03-21T20:57:58.824Z,12.40
2019-03-21T21:00:48.849Z,12.30
2019-03-21T21:03:38.901Z,12.30
2019-03-21T21:06:28.715Z,12.20
2019-03-21T21:09:18.516Z,12.20
2019-03-21T21:12:08.840Z,12.20
2019-03-21T21:14:58.539Z,12.10
2019-03-21T21:17:48.729Z,12.10
2019-03-21T21:20:38.426Z,12.10
2019-03-21T21:23:28.148Z,12.10
2019-03-21T21:26:17.911Z,12.00
2019-03-21T21:29:07.795Z,12.00
2019-03-21T21:31:57.237Z,12.00
2019-03-21T21:34:46.433Z,12.00
2019-03-21T21:37:35.578Z,11.90
2019-03-21T21:40:24.655Z,11.90
2019-03-21T21:43:14.334Z,11.90
2019-03-21T21:46:03.611Z,11.80
